createdAt,value
2024-01-11T00:00:00.543Z,1006.5
2024-01-11T00:10:00.712Z,1006.5
2024-01-11T00:20:00.597Z,1006.5
2024-01-11T00:30:00.579Z,1006.4
2024-01-11T00:40:00.472Z,1006.3
2024-01-11T00:50:00.488Z,1006.2
2024-01-11T01:00:04.101Z,1006.1
2024-01-11T01:10:00.484Z,1006.0
2024-01-11T01:20:00.576Z,1005.8
2024-01-11T01:30:00.526Z,1005.7
2024-01-11T01:40:00.502Z,1005.6
2024-01-11T01:50:00.657Z,1005.4
2024-01-11T02:00:00.534Z,1005.3
2024-01-11T02:10:00.700Z,1005.2
2024-01-11T02:20:00.594Z,1005.1
2024-01-11T02:30:00.566Z,1004.9
2024-01-11T02:40:00.517Z,1004.7
2024-01-11T02:50:00.634Z,1004.5
2024-01-11T03:00:00.537Z,1004.4
2024-01-11T03:10:00.556Z,1004.3
2024-01-11T03:20:00.544Z,1004.2
2024-01-11T03:30:00.639Z,1004.0
2024-01-11T03:40:00.606Z,1004.0
2024-01-11T03:50:00.628Z,1003.8
2024-01-11T04:00:00.605Z,1003.7
2024-01-11T04:10:00.525Z,1003.7
2024-01-11T04:20:00.640Z,1003.8
2024-01-11T04:30:00.621Z,1003.7
2024-01-11T04:40:00.615Z,1003.7
2024-01-11T04:50:00.803Z,1003.6
2024-01-11T05:00:03.653Z,1003.7
2024-01-11T05:10:00.490Z,1003.6
2024-01-11T05:20:00.690Z,1003.6
2024-01-11T05:30:00.853Z,1003.6
2024-01-11T05:40:00.584Z,1003.6
2024-01-11T05:50:00.837Z,1003.6
2024-01-11T06:00:00.828Z,1003.6
2024-01-11T06:10:00.581Z,1003.5
2024-01-11T06:20:00.711Z,1003.4
2024-01-11T06:30:00.548Z,1003.4
2024-01-11T06:40:00.494Z,1003.3
2024-01-11T06:50:00.555Z,1003.4
2024-01-11T07:00:00.657Z,1003.6
2024-01-11T07:10:00.544Z,1003.5
2024-01-11T07:20:00.609Z,1003.6
2024-01-11T07:30:00.572Z,1003.6
2024-01-11T07:40:00.544Z,1003.7
2024-01-11T07:50:00.605Z,1003.7
2024-01-11T08:00:00.658Z,1003.7
2024-01-11T08:10:00.537Z,1003.6
2024-01-11T08:20:00.637Z,1003.5
2024-01-11T08:30:00.580Z,1003.4
2024-01-11T08:40:00.897Z,1003.3
2024-01-11T08:50:00.726Z,1003.5
2024-01-11T09:00:00.560Z,1003.2
2024-01-11T09:10:00.564Z,1003.0
2024-01-11T09:20:00.562Z,1002.6
2024-01-11T09:30:00.582Z,1002.0
2024-01-11T09:40:00.475Z,1001.4
2024-01-11T09:50:00.609Z,1001.0
2024-01-11T10:00:00.773Z,1000.4
2024-01-11T10:10:00.502Z,1000.1
2024-01-11T10:20:00.752Z,1000.0
2024-01-11T10:30:00.469Z,999.8
2024-01-11T10:40:00.461Z,999.5
2024-01-11T10:50:00.567Z,999.3
2024-01-11T11:00:00.527Z,999.1
2024-01-11T11:10:00.457Z,999.2
2024-01-11T11:20:00.458Z,999.0
2024-01-11T11:30:00.521Z,998.9
2024-01-11T11:40:01.914Z,998.6
2024-01-11T11:50:00.469Z,998.4
2024-01-11T12:00:00.697Z,998.3
2024-01-11T12:10:00.552Z,998.0
2024-01-11T12:20:00.468Z,997.9
2024-01-11T12:30:00.650Z,998.3
2024-01-11T12:40:00.762Z,997.9
2024-01-11T12:50:00.539Z,998.2
2024-01-11T13:00:00.528Z,997.9
2024-01-11T13:10:00.760Z,997.7
2024-01-11T13:20:00.724Z,997.6
2024-01-11T13:30:00.469Z,997.5
2024-01-11T13:40:00.493Z,997.3
2024-01-11T13:50:00.685Z,997.2
2024-01-11T14:00:00.568Z,996.8
2024-01-11T14:10:00.563Z,996.6
2024-01-11T14:20:00.811Z,996.4
2024-01-11T14:30:00.935Z,996.4
2024-01-11T14:40:00.524Z,996.3
2024-01-11T14:50:00.458Z,996.4
2024-01-11T15:00:00.629Z,996.2
2024-01-11T15:10:00.609Z,996.1
2024-01-11T15:20:00.601Z,996.1
2024-01-11T15:30:01.045Z,996.2
2024-01-11T15:40:00.628Z,996.4
2024-01-11T15:50:00.498Z,996.6
2024-01-11T16:00:01.024Z,996.7
2024-01-11T16:10:00.426Z,996.8
2024-01-11T16:20:00.586Z,996.9
2024-01-11T16:30:03.223Z,996.8
2024-01-11T16:40:00.517Z,996.6
2024-01-11T16:50:00.487Z,996.6
2024-01-11T17:00:00.653Z,996.4
2024-01-11T17:10:00.492Z,996.3
2024-01-11T17:20:00.544Z,996.3
2024-01-11T17:30:00.578Z,996.2
2024-01-11T17:40:00.594Z,996.1
2024-01-11T17:50:00.552Z,996.0
2024-01-11T18:00:00.698Z,995.7
2024-01-11T18:10:00.458Z,995.5
2024-01-11T18:20:00.497Z,995.4
2024-01-11T18:30:00.763Z,995.5
2024-01-11T18:40:00.520Z,995.4
2024-01-11T18:50:00.535Z,995.4
2024-01-11T19:00:00.767Z,995.1
2024-01-11T19:10:00.519Z,995.2
2024-01-11T19:20:00.560Z,995.1
2024-01-11T19:30:00.667Z,994.9
2024-01-11T19:40:00.528Z,994.9
2024-01-11T19:50:00.516Z,995.1
2024-01-11T20:00:00.711Z,995.2
2024-01-11T20:10:00.504Z,995.0
2024-01-11T20:20:00.523Z,994.8
2024-01-11T20:30:00.730Z,994.5
2024-01-11T20:40:00.489Z,994.9
2024-01-11T20:50:00.612Z,994.9
2024-01-11T21:00:00.758Z,995.1
2024-01-11T21:10:00.470Z,995.0
2024-01-11T21:20:00.657Z,994.9
2024-01-11T21:30:00.648Z,994.9
2024-01-11T21:40:00.490Z,995.0
2024-01-11T21:50:00.701Z,995.2
2024-01-11T22:00:00.848Z,995.5
2024-01-11T22:10:00.578Z,995.5
2024-01-11T22:20:00.703Z,995.5
2024-01-11T22:30:00.604Z,995.7
2024-01-11T22:40:00.546Z,995.7
2024-01-11T22:50:00.511Z,996.0
2024-01-11T23:00:00.698Z,996.0
2024-01-11T23:10:00.493Z,996.2
2024-01-11T23:20:00.539Z,996.3
2024-01-11T23:30:00.831Z,996.4
2024-01-11T23:40:00.468Z,996.2
2024-01-11T23:50:00.774Z,996.3
